Time;durP1;ratioP1;P1;durP2;ratioP2;P2;SDS_P1;SDS_P2;PMS_P1;PMS_P2;Temp;Humidity;BMP_temperature;BMP_pressure;BME280_temperature;BME280_humidity;BME280_pressure;Samples;Min_cycle;Max_cycle;Signal;HPM_P1;HPM_P2
2021/05/26 00:01:31;;;;;;;5.23;2.20;;;;;;;-144.99;96.95;52350.25;5069296;28;20686;-61
2021/05/26 00:03:57;;;;;;;2.50;2.10;;;;;;;-144.99;96.89;52362.50;5069693;28;20212;-62
2021/05/26 00:06:23;;;;;;;5.40;3.07;;;;;;;-144.99;96.94;52366.56;5067093;28;20270;-61
2021/05/26 00:08:49;;;;;;;2.70;1.70;;;;;;;-144.99;97.02;52374.72;5058466;28;20667;-61
2021/05/26 00:11:17;;;;;;;3.00;2.60;;;;;;;-144.99;97.17;52354.34;5069355;28;20848;-61
2021/05/26 00:13:45;;;;;;;1.97;1.73;;;;;;;-144.99;97.19;52399.19;5067395;28;20339;-61
2021/05/26 00:16:17;;;;;;;3.03;2.10;;;;;;;-144.99;97.21;52397.13;5069307;28;20216;-62
2021/05/26 00:18:46;;;;;;;4.07;2.50;;;;;;;-144.99;97.24;52370.63;5068877;28;20224;-61
2021/05/26 00:21:12;;;;;;;2.87;2.13;;;;;;;-144.99;97.18;52372.69;5069176;28;20573;-61
2021/05/26 00:23:38;;;;;;;3.63;2.00;;;;;;;-144.99;97.28;52321.72;5068886;28;20208;-60
2021/05/26 00:26:07;;;;;;;3.00;2.20;;;;;;;-144.99;97.14;52372.69;5059654;28;20254;-60
2021/05/26 00:28:34;;;;;;;4.33;2.60;;;;;;;-144.99;97.45;52366.56;5067861;28;20258;-61
2021/05/26 00:31:01;;;;;;;3.03;1.93;;;;;;;-144.99;97.25;52370.63;5069667;28;20204;-63
2021/05/26 00:33:29;;;;;;;4.47;2.30;;;;;;;-144.99;97.60;52346.19;5068620;28;20204;-60
2021/05/26 00:35:58;;;;;;;3.73;2.77;;;;;;;-144.99;97.51;52358.41;5063223;28;20213;-61
2021/05/26 00:38:24;;;;;;;4.60;1.80;;;;;;;-144.99;97.40;52370.63;5068154;28;20495;-62
2021/05/26 00:40:53;;;;;;;3.43;2.07;;;;;;;-144.99;97.24;52391.03;5068886;28;20220;-58
2021/05/26 00:43:20;;;;;;;6.40;2.57;;;;;;;-144.99;97.45;52362.50;5068402;28;20220;-60
2021/05/26 00:45:50;;;;;;;3.07;2.50;;;;;;;-144.99;97.25;52378.78;5067659;28;20295;-61
2021/05/26 00:48:16;;;;;;;4.17;2.03;;;;;;;-144.99;97.08;52354.34;5068736;28;20224;-60
2021/05/26 00:50:42;;;;;;;3.97;2.77;;;;;;;-144.99;97.01;52370.63;5069779;28;20296;-61
2021/05/26 00:53:11;;;;;;;3.07;2.50;;;;;;;-144.99;96.98;52382.88;5072752;28;20703;-61
2021/05/26 00:55:44;;;;;;;3.07;2.20;;;;;;;-144.99;97.13;52346.19;5070070;28;20212;-61
2021/05/26 00:58:11;;;;;;;2.87;2.30;;;;;;;-144.99;97.13;52399.19;5068596;28;20229;-61
2021/05/26 01:00:42;;;;;;;4.27;2.43;;;;;;;-144.99;97.06;52370.63;5072692;28;20257;-61
2021/05/26 01:03:09;;;;;;;7.47;2.83;;;;;;;-144.99;97.36;52358.41;5071851;28;20690;-60
2021/05/26 01:05:36;;;;;;;4.17;3.10;;;;;;;-144.99;97.32;52370.63;5071592;28;20215;-61
2021/05/26 01:08:02;;;;;;;4.50;3.17;;;;;;;-144.99;97.24;52350.25;5070490;28;20221;-61
2021/05/26 01:10:30;;;;;;;4.73;3.93;;;;;;;-144.99;97.33;52399.19;5072200;28;20213;-60
2021/05/26 01:12:59;;;;;;;4.63;2.73;;;;;;;-144.99;97.20;52346.19;5071974;28;20557;-61
2021/05/26 01:15:26;;;;;;;5.40;3.13;;;;;;;-144.99;97.43;52374.72;5072558;28;20273;-61
2021/05/26 01:17:52;;;;;;;6.00;3.33;;;;;;;-144.99;97.37;52354.34;5062181;28;20233;-61
2021/05/26 01:20:22;;;;;;;3.27;2.93;;;;;;;-144.99;97.27;52384.91;5072509;28;20235;-61
2021/05/26 01:22:50;;;;;;;5.10;3.47;;;;;;;-144.99;97.54;52370.63;5071686;28;20216;-61
2021/05/26 01:25:19;;;;;;;4.23;3.77;;;;;;;-144.99;97.45;52391.03;5072462;28;20208;-61
2021/05/26 01:27:48;;;;;;;8.47;4.07;;;;;;;-144.99;97.71;52378.78;5068374;28;20221;-61
2021/05/26 01:30:16;;;;;;;6.37;4.70;;;;;;;-144.99;97.83;52362.50;5072199;28;20278;-64
2021/05/26 01:32:47;;;;;;;5.13;4.33;;;;;;;-144.99;98.05;52380.84;5070924;28;20213;-65
2021/05/26 01:35:15;;;;;;;7.23;5.03;;;;;;;-144.99;97.96;52393.06;5071733;28;20196;-64
2021/05/26 01:37:43;;;;;;;5.87;5.10;;;;;;;-144.99;98.05;52382.88;5069345;28;20607;-64
2021/05/26 01:40:12;;;;;;;6.10;5.33;;;;;;;-144.99;98.25;52382.88;5071727;28;20254;-63
2021/05/26 01:42:39;;;;;;;7.90;7.10;;;;;;;-144.99;98.25;52376.75;5070689;28;20217;-65
2021/05/26 01:45:11;;;;;;;8.43;5.37;;;;;;;-144.99;98.27;52378.78;5071541;28;20678;-64
2021/05/26 01:47:37;;;;;;;8.33;5.03;;;;;;;-144.99;98.26;52317.66;5069393;28;20693;-63
2021/05/26 01:50:04;;;;;;;6.20;4.67;;;;;;;-144.99;98.27;52378.78;5071517;28;20219;-63
2021/05/26 01:52:33;;;;;;;8.97;6.13;;;;;;;-144.99;98.50;52403.25;5071682;28;20355;-63
2021/05/26 01:54:59;;;;;;;6.67;5.63;;;;;;;-144.99;98.65;52391.03;5071497;28;20266;-63
2021/05/26 01:57:26;;;;;;;6.43;5.63;;;;;;;-144.99;98.61;52391.03;5070638;28;20236;-63
2021/05/26 01:59:52;;;;;;;8.03;6.20;;;;;;;-144.99;98.54;52372.69;5070299;28;20201;-62
2021/05/26 02:02:18;;;;;;;7.00;5.70;;;;;;;-144.99;98.70;52370.63;5071256;28;20213;-64
2021/05/26 02:04:44;;;;;;;9.07;6.53;;;;;;;-144.99;98.91;52386.94;5068790;28;20206;-62
2021/05/26 02:07:13;;;;;;;8.73;6.30;;;;;;;-144.99;98.89;52370.63;5070806;28;20659;-63
2021/05/26 02:09:40;;;;;;;9.37;6.20;;;;;;;-144.99;99.19;52386.94;5070309;28;20746;-63
2021/05/26 02:12:21;;;;;;;10.70;7.60;;;;;;;-144.99;99.17;52350.25;5071189;28;20205;-64
2021/05/26 02:14:50;;;;;;;9.43;6.63;;;;;;;-144.99;99.08;52411.41;5069091;28;20919;-62
2021/05/26 02:17:16;;;;;;;8.87;6.93;;;;;;;-144.99;98.94;52331.91;5064895;28;20263;-62
2021/05/26 02:19:45;;;;;;;11.50;6.43;;;;;;;-144.99;98.90;52362.50;5070726;28;20255;-64
2021/05/26 02:22:14;;;;;;;7.73;6.20;;;;;;;-144.99;98.91;52321.72;5071211;28;20265;-60
2021/05/26 02:24:40;;;;;;;8.17;7.13;;;;;;;-144.99;98.69;52354.34;5070855;28;20213;-60
2021/05/26 02:27:10;;;;;;;9.47;7.03;;;;;;;-144.99;98.60;52374.72;5067745;28;20244;-61
2021/05/26 02:29:36;;;;;;;10.43;7.07;;;;;;;-144.99;98.58;52374.72;5070840;28;20335;-62
2021/05/26 02:32:05;;;;;;;9.70;6.67;;;;;;;-144.99;98.41;52358.41;5070807;28;20207;-60
2021/05/26 02:34:31;;;;;;;9.20;8.33;;;;;;;-144.99;98.44;52364.53;5068986;28;20216;-61
2021/05/26 02:36:57;;;;;;;10.37;7.73;;;;;;;-144.99;98.32;52370.63;5070210;28;20757;-61
2021/05/26 02:39:23;;;;;;;8.70;5.97;;;;;;;-144.99;98.15;52407.31;5070503;28;20224;-61
2021/05/26 02:41:53;;;;;;;9.73;7.77;;;;;;;-144.99;98.04;52370.63;5070376;28;20216;-68
2021/05/26 02:44:20;;;;;;;8.20;7.40;;;;;;;-144.99;98.03;52386.94;5065828;28;20209;-64
2021/05/26 02:46:49;;;;;;;12.10;6.43;;;;;;;-144.99;98.10;52350.25;5069780;28;20310;-64
2021/05/26 02:49:16;;;;;;;10.33;6.93;;;;;;;-144.99;98.02;52366.56;5070979;28;20212;-64
2021/05/26 02:51:45;;;;;;;7.37;6.53;;;;;;;-144.99;98.27;52372.69;5070640;28;20213;-63
2021/05/26 02:54:11;;;;;;;7.97;7.13;;;;;;;-144.99;98.18;52366.56;5068146;28;20204;-63
2021/05/26 02:56:40;;;;;;;10.50;7.37;;;;;;;-144.99;98.37;52372.69;5066718;28;20328;-62
2021/05/26 02:59:12;;;;;;;11.83;7.20;;;;;;;-144.99;98.21;52435.88;5070332;28;20212;-70
2021/05/26 03:01:38;;;;;;;8.53;6.40;;;;;;;-144.99;98.24;52374.72;5069392;28;20208;-68
2021/05/26 03:04:04;;;;;;;6.63;5.83;;;;;;;-144.99;97.95;52350.25;5070417;28;20627;-73
2021/05/26 03:06:34;;;;;;;8.50;6.83;;;;;;;-144.99;98.05;52399.19;5070747;28;20209;-72
2021/05/26 03:09:01;;;;;;;8.47;6.20;;;;;;;-144.99;97.99;52382.88;5070005;28;20262;-72
2021/05/26 03:11:27;;;;;;;8.63;6.67;;;;;;;-144.99;97.93;52362.50;5070436;28;20219;-73
2021/05/26 03:13:53;;;;;;;8.27;6.83;;;;;;;-144.99;97.94;52358.41;5072048;28;20291;-73
2021/05/26 03:16:25;;;;;;;9.97;7.77;;;;;;;-144.99;97.80;52370.63;5071597;28;20666;-71
2021/05/26 03:18:54;;;;;;;7.73;5.80;;;;;;;-144.99;97.95;52386.94;5060391;28;20307;-75
2021/05/26 03:21:20;;;;;;;10.07;7.03;;;;;;;-144.99;97.76;52403.25;5068909;28;20212;-73
2021/05/26 03:23:50;;;;;;;8.87;7.97;;;;;;;-144.99;97.74;52419.56;5062690;28;20192;-74
2021/05/26 03:26:19;;;;;;;7.03;5.43;;;;;;;-144.99;97.89;52329.88;5070898;28;20635;-64
2021/05/26 03:28:45;;;;;;;7.47;6.67;;;;;;;-144.99;98.21;52352.28;5068501;28;20290;-63
2021/05/26 03:31:14;;;;;;;8.70;7.87;;;;;;;-144.99;98.43;52382.88;5069131;28;20683;-64
2021/05/26 03:33:40;;;;;;;6.80;6.07;;;;;;;-144.99;98.86;52395.09;5064943;28;20212;-64
2021/05/26 03:36:13;;;;;;;13.97;6.47;;;;;;;-144.99;99.00;52358.41;5069420;28;20211;-63
2021/05/26 03:38:39;;;;;;;9.50;6.23;;;;;;;-144.99;98.89;52346.19;5069084;28;20225;-64
2021/05/26 03:41:06;;;;;;;10.30;5.03;;;;;;;-144.99;99.05;52384.91;5069768;28;20713;-64
2021/05/26 03:43:32;;;;;;;9.47;6.47;;;;;;;-144.99;99.06;52366.56;5067303;28;20219;-64
2021/05/26 03:46:01;;;;;;;10.80;5.17;;;;;;;-144.99;98.73;52370.63;5070313;28;20216;-63
2021/05/26 03:48:30;;;;;;;9.13;7.17;;;;;;;-144.99;98.83;52419.56;5070032;28;20250;-63
2021/05/26 03:50:59;;;;;;;7.40;5.50;;;;;;;-144.99;98.67;52399.19;5070000;28;20377;-63
2021/05/26 03:53:25;;;;;;;6.33;4.63;;;;;;;-144.99;98.68;52350.25;5061016;28;20202;-64
2021/05/26 03:55:54;;;;;;;6.30;5.70;;;;;;;-144.99;98.26;52360.44;5069798;28;20247;-64
2021/05/26 03:58:21;;;;;;;8.93;6.17;;;;;;;-144.99;98.45;52378.78;5068707;28;20604;-65
2021/05/26 04:00:53;;;;;;;5.77;5.23;;;;;;;-144.99;98.19;52376.75;5069807;28;20215;-62
2021/05/26 04:03:19;;;;;;;10.77;5.10;;;;;;;-144.99;98.23;52362.50;5068067;28;20655;-64
2021/05/26 04:05:48;;;;;;;6.90;5.50;;;;;;;-144.99;98.04;52360.44;5067941;28;20201;-66
2021/05/26 04:08:14;;;;;;;12.97;6.63;;;;;;;-144.99;97.72;52374.72;5068420;28;20737;-66
2021/05/26 04:10:40;;;;;;;10.10;5.20;;;;;;;-144.99;97.67;52329.88;5069512;28;20205;-60
2021/05/26 04:13:09;;;;;;;9.20;6.77;;;;;;;-144.99;97.80;52370.63;5067615;28;20241;-60
2021/05/26 04:15:39;;;;;;;6.27;5.37;;;;;;;-144.99;97.58;52395.09;5066174;28;20221;-59
2021/05/26 04:18:09;;;;;;;8.37;5.60;;;;;;;-144.99;97.45;52378.78;5067238;28;20319;-60
2021/05/26 04:20:39;;;;;;;7.13;5.73;;;;;;;-144.99;97.20;52378.78;5069344;28;20248;-60
2021/05/26 04:23:05;;;;;;;8.40;5.80;;;;;;;-144.99;97.45;52378.78;5069052;28;20217;-59
2021/05/26 04:25:32;;;;;;;4.97;4.50;;;;;;;-144.99;97.50;52384.91;5071335;28;20217;-60
2021/05/26 04:27:59;;;;;;;7.57;4.83;;;;;;;-144.99;97.79;52370.63;5074118;28;20596;-60
2021/05/26 04:30:28;;;;;;;11.40;6.50;;;;;;;-144.99;98.00;52366.56;5073753;28;20208;-59
2021/05/26 04:32:58;;;;;;;7.17;5.70;;;;;;;-144.99;98.05;52329.88;5073064;28;20205;-61
2021/05/26 04:35:24;;;;;;;7.33;6.63;;;;;;;-144.99;97.95;52360.44;5069687;28;20216;-59
2021/05/26 04:37:53;;;;;;;8.70;4.87;;;;;;;-144.99;97.34;52366.56;5070672;28;20220;-60
2021/05/26 04:40:19;;;;;;;14.13;6.17;;;;;;;-144.99;96.90;52338.03;5072881;28;20204;-60
2021/05/26 04:42:46;;;;;;;6.57;4.47;;;;;;;-144.99;96.54;52374.72;5072747;28;20216;-60
2021/05/26 04:45:13;;;;;;;7.20;5.20;;;;;;;-144.99;95.94;52386.94;5073292;28;20672;-58
2021/05/26 04:47:42;;;;;;;8.40;4.30;;;;;;;-144.99;95.18;52382.88;5072130;28;20259;-58
2021/05/26 04:50:14;;;;;;;7.37;6.30;;;;;;;-144.99;95.33;52370.63;5066560;28;20274;-58
2021/05/26 04:52:40;;;;;;;7.53;4.80;;;;;;;-144.99;94.51;52366.56;5072661;28;20205;-58
2021/05/26 04:55:09;;;;;;;9.30;4.40;;;;;;;-144.99;94.74;52386.94;5071625;28;20259;-58
2021/05/26 04:57:38;;;;;;;9.33;5.00;;;;;;;-144.99;94.60;52378.78;5072128;28;20229;-58
2021/05/26 05:00:06;;;;;;;5.60;4.90;;;;;;;-144.99;94.34;52378.78;5071113;28;20205;-58
2021/05/26 05:02:32;;;;;;;11.37;5.50;;;;;;;-144.99;94.06;52370.63;5070699;28;20215;-57
2021/05/26 05:05:01;;;;;;;9.07;5.63;;;;;;;-144.99;93.99;52350.25;5068452;28;20201;-58
2021/05/26 05:07:28;;;;;;;8.27;5.23;;;;;;;-144.99;94.21;52350.25;5065870;28;20227;-58
2021/05/26 05:09:54;;;;;;;6.63;4.70;;;;;;;-144.99;94.00;52376.75;5072686;28;20207;-60
2021/05/26 05:12:23;;;;;;;9.07;6.53;;;;;;;-144.99;93.73;52344.16;5072661;28;20635;-58
2021/05/26 05:14:49;;;;;;;9.50;5.93;;;;;;;-144.99;93.69;52350.25;5070818;28;20285;-58
2021/05/26 05:17:15;;;;;;;7.93;6.10;;;;;;;-144.99;93.42;52366.56;5073176;28;20666;-59
2021/05/26 05:19:43;;;;;;;9.17;5.50;;;;;;;-144.99;93.24;52340.06;5072942;28;20230;-59
2021/05/26 05:22:10;;;;;;;7.27;5.33;;;;;;;-144.99;93.08;52366.56;5073080;28;20212;-61
2021/05/26 05:24:42;;;;;;;7.97;4.87;;;;;;;-144.99;92.64;52362.50;5071653;28;20213;-62
2021/05/26 05:27:08;;;;;;;6.70;4.93;;;;;;;-144.99;92.58;52374.72;5066951;28;20228;-63
2021/05/26 05:29:40;;;;;;;8.97;5.70;;;;;;;-144.99;92.61;52419.56;5072776;28;20204;-65
2021/05/26 05:32:06;;;;;;;6.33;4.33;;;;;;;-144.99;92.62;52374.72;5065171;28;20205;-65
2021/05/26 05:34:35;;;;;;;8.37;5.00;;;;;;;-144.99;92.26;52346.19;5073192;28;20205;-63
2021/05/26 05:37:01;;;;;;;7.83;4.73;;;;;;;-144.99;92.07;52370.63;5071375;28;20588;-63
2021/05/26 05:39:27;;;;;;;8.07;5.27;;;;;;;-144.99;90.80;52325.81;5073261;28;20213;-64
2021/05/26 05:41:54;;;;;;;5.63;5.00;;;;;;;-144.99;90.32;52350.25;5072290;28;20230;-62
2021/05/26 05:44:21;;;;;;;8.63;5.07;;;;;;;-144.99;89.45;52340.06;5072054;28;20243;-61
2021/05/26 05:46:50;;;;;;;6.57;4.67;;;;;;;-144.99;88.98;52331.91;5070774;28;20239;-64
2021/05/26 05:49:16;;;;;;;5.47;4.60;;;;;;;-144.99;88.68;52342.09;5067659;28;20208;-62
2021/05/26 05:51:42;;;;;;;5.50;3.53;;;;;;;-144.99;87.74;52350.25;5072617;28;20224;-63
2021/05/26 05:54:08;;;;;;;6.23;4.10;;;;;;;-144.99;87.09;52323.75;5072156;28;20296;-64
2021/05/26 05:56:34;;;;;;;9.37;5.97;;;;;;;-144.99;86.01;52374.72;5062300;28;20216;-63
2021/05/26 05:59:02;;;;;;;4.20;3.47;;;;;;;-144.99;85.67;52329.88;5071331;28;20698;-64
2021/05/26 06:01:28;;;;;;;5.97;4.73;;;;;;;-144.99;85.81;52358.41;5071680;28;20209;-63
2021/05/26 06:03:56;;;;;;;12.63;6.03;;;;;;;-144.99;85.26;52329.88;5071881;28;20626;-64
2021/05/26 06:06:28;;;;;;;9.00;6.23;;;;;;;-144.99;84.99;52329.88;5069928;28;20669;-64
2021/05/26 06:08:55;;;;;;;6.87;4.20;;;;;;;-144.99;85.15;52344.16;5063233;28;20291;-63
2021/05/26 06:11:21;;;;;;;6.73;4.80;;;;;;;-144.99;84.87;52325.81;5071586;28;20221;-61
2021/05/26 06:13:48;;;;;;;8.27;5.23;;;;;;;-144.99;85.01;52309.50;5071750;28;20204;-60
2021/05/26 06:16:16;;;;;;;8.90;4.53;;;;;;;-144.99;85.17;52333.94;5071293;28;20205;-59
2021/05/26 06:18:42;;;;;;;6.90;4.97;;;;;;;-144.99;84.94;52354.34;5069163;28;20232;-60
2021/05/26 06:21:08;;;;;;;8.47;4.57;;;;;;;-144.99;85.46;52346.19;5071610;28;20209;-59
2021/05/26 06:23:34;;;;;;;4.83;4.20;;;;;;;-144.99;85.18;52352.28;5071403;28;20217;-59
2021/05/26 06:26:01;;;;;;;6.23;4.70;;;;;;;-144.99;84.87;52313.56;5071308;28;20212;-59
2021/05/26 06:28:27;;;;;;;5.67;5.00;;;;;;;-144.99;84.12;52317.66;5070148;28;20235;-59
2021/05/26 06:30:56;;;;;;;7.43;3.90;;;;;;;-144.99;83.32;52313.56;5070970;28;20862;-58
2021/05/26 06:33:26;;;;;;;8.03;4.40;;;;;;;-144.99;83.89;52305.41;5071372;28;20220;-58
2021/05/26 06:35:56;;;;;;;5.80;4.27;;;;;;;-144.99;83.75;52313.56;5069036;28;20215;-61
2021/05/26 06:38:22;;;;;;;7.07;5.07;;;;;;;-144.99;83.35;52360.44;5069902;28;20232;-61
2021/05/26 06:40:52;;;;;;;8.63;4.40;;;;;;;-144.99;83.85;52354.34;5071541;28;20301;-61
2021/05/26 06:43:18;;;;;;;7.23;5.50;;;;;;;-144.99;84.82;52352.28;5076819;28;20244;-61
2021/05/26 06:45:44;;;;;;;12.77;4.70;;;;;;;-144.99;84.63;52329.88;5074963;28;20250;-63
2021/05/26 06:48:10;;;;;;;9.23;5.03;;;;;;;-144.99;84.96;52342.09;5070964;28;20312;-68
2021/05/26 06:50:38;;;;;;;6.60;5.13;;;;;;;-144.99;84.68;52342.09;5068584;28;20211;-67
2021/05/26 06:53:04;;;;;;;6.40;5.37;;;;;;;-144.99;84.64;52333.94;5070425;28;20687;-67
2021/05/26 06:55:30;;;;;;;11.40;4.83;;;;;;;-144.99;84.74;52325.81;5071202;28;20685;-66
2021/05/26 06:57:59;;;;;;;6.70;4.50;;;;;;;-144.99;84.96;52360.44;5066382;28;20227;-65
2021/05/26 07:00:25;;;;;;;7.03;5.37;;;;;;;-144.99;85.01;52325.81;5070500;28;20217;-65
2021/05/26 07:02:54;;;;;;;9.60;7.40;;;;;;;-144.99;85.21;52329.88;5071464;28;20240;-66
2021/05/26 07:05:23;;;;;;;5.93;4.57;;;;;;;-144.99;84.88;52285.03;5071106;28;20221;-65
2021/05/26 07:07:53;;;;;;;6.13;4.80;;;;;;;-144.99;84.59;52350.25;5069490;28;20275;-66
2021/05/26 07:10:23;;;;;;;5.37;4.77;;;;;;;-144.99;84.22;52325.81;5070716;28;20228;-61
2021/05/26 07:12:50;;;;;;;6.47;4.30;;;;;;;-144.99;83.83;52354.34;5069917;28;20220;-61
2021/05/26 07:15:17;;;;;;;8.27;4.77;;;;;;;-144.99;83.86;52362.50;5070438;28;20197;-61
2021/05/26 07:17:44;;;;;;;9.47;4.80;;;;;;;-144.99;83.32;52342.09;5069949;28;20280;-60
2021/05/26 07:20:16;;;;;;;9.50;5.73;;;;;;;-144.99;82.95;52333.94;5069129;28;20594;-60
2021/05/26 07:22:43;;;;;;;4.13;3.73;;;;;;;-144.99;82.30;52356.38;5070113;28;20678;-61
2021/05/26 07:25:13;;;;;;;5.33;3.30;;;;;;;-144.99;82.31;52350.25;5070666;28;20508;-61
2021/05/26 07:27:45;;;;;;;5.97;2.93;;;;;;;-144.99;82.44;52338.03;5068570;28;20239;-60
2021/05/26 07:30:18;;;;;;;3.97;2.33;;;;;;;-144.99;82.32;52340.06;5069494;28;20205;-66
2021/05/26 07:32:48;;;;;;;10.17;3.33;;;;;;;-144.99;83.63;52309.50;5069417;28;20263;-69
2021/05/26 07:35:17;;;;;;;4.60;2.90;;;;;;;-144.99;84.85;52366.56;5064774;28;20204;-70
2021/05/26 07:37:44;;;;;;;5.00;3.27;;;;;;;-144.99;83.93;52366.56;5070031;28;20229;-68
2021/05/26 07:40:13;;;;;;;6.20;4.20;;;;;;;-144.99;84.89;52370.63;5071013;28;20201;-69
2021/05/26 07:42:42;;;;;;;5.47;4.30;;;;;;;-144.99;86.82;52358.41;5056776;28;20217;-71
2021/05/26 07:45:15;;;;;;;8.83;3.70;;;;;;;-144.99;87.62;52350.25;5072475;28;20291;-71
2021/05/26 07:47:41;;;;;;;4.83;4.00;;;;;;;-144.99;87.99;52362.50;5074258;28;20277;-71
2021/05/26 07:50:11;;;;;;;4.03;3.67;;;;;;;-144.99;88.90;52378.78;5072886;28;20213;-70
2021/05/26 07:52:40;;;;;;;6.70;4.00;;;;;;;-144.99;90.63;52350.25;5069731;28;20209;-71
2021/05/26 07:55:07;;;;;;;5.37;4.23;;;;;;;-144.99;89.51;52376.75;5068747;28;20201;-66
2021/05/26 07:57:37;;;;;;;5.03;4.10;;;;;;;-144.99;90.44;52331.91;5069053;28;20514;-64
2021/05/26 08:00:08;;;;;;;4.73;4.07;;;;;;;-144.99;91.39;52305.41;5069037;28;20611;-67
2021/05/26 08:02:38;;;;;;;5.43;4.20;;;;;;;-144.99;91.47;52354.34;5071024;28;20217;-68
2021/05/26 08:05:21;;;;;;;4.77;3.07;;;;;;;-144.99;91.95;52374.72;5069831;28;20223;-67
2021/05/26 08:07:47;;;;;;;5.67;3.43;;;;;;;-144.99;92.55;52325.81;5059525;28;20239;-68
2021/05/26 08:10:15;;;;;;;4.60;3.47;;;;;;;-144.99;92.08;52329.88;5069282;28;20197;-68
2021/05/26 08:12:44;;;;;;;3.33;2.50;;;;;;;-144.99;90.86;52329.88;5071653;28;20566;-68
2021/05/26 08:15:13;;;;;;;2.53;2.10;;;;;;;-144.99;90.69;52333.94;5070313;28;20750;-68
2021/05/26 08:17:43;;;;;;;7.57;2.83;;;;;;;-144.99;91.04;52325.81;5068587;28;20252;-68
2021/05/26 08:20:15;;;;;;;4.93;2.63;;;;;;;-144.99;92.00;52338.03;5068434;28;20201;-68
2021/05/26 08:22:44;;;;;;;5.87;3.30;;;;;;;-144.99;92.25;52321.72;5068884;28;20736;-68
2021/05/26 08:25:11;;;;;;;6.77;4.30;;;;;;;-144.99;91.07;52344.16;5069880;28;20216;-68
2021/05/26 08:27:38;;;;;;;8.67;4.70;;;;;;;-144.99;91.74;52325.81;5068948;28;20252;-69
2021/05/26 08:30:09;;;;;;;6.33;5.57;;;;;;;-144.99;92.46;52374.72;5068516;28;20219;-67
2021/05/26 08:32:35;;;;;;;8.73;6.23;;;;;;;-144.99;92.23;52313.56;5067389;28;20213;-68
2021/05/26 08:35:05;;;;;;;8.20;7.07;;;;;;;-144.99;91.82;52317.66;5069217;28;20475;-69
2021/05/26 08:37:34;;;;;;;9.27;7.87;;;;;;;-144.99;90.49;52321.72;5063243;28;20677;-68
2021/05/26 08:40:03;;;;;;;9.37;7.57;;;;;;;-144.99;90.28;52325.81;5066473;28;20308;-69
2021/05/26 08:42:31;;;;;;;10.10;7.17;;;;;;;-144.99;89.63;52317.66;5065785;28;20209;-67
2021/05/26 08:45:00;;;;;;;10.83;7.43;;;;;;;-144.99;88.30;52293.19;5062675;28;20208;-69
2021/05/26 08:47:28;;;;;;;9.50;7.70;;;;;;;-144.99;85.59;52350.25;5070540;28;20231;-72
2021/05/26 08:49:55;;;;;;;7.03;6.30;;;;;;;-144.99;85.56;52325.81;5070457;28;20741;-69
2021/05/26 08:52:21;;;;;;;8.20;7.17;;;;;;;-144.99;83.55;52374.72;5066125;28;20659;-67
2021/05/26 08:54:48;;;;;;;8.87;6.73;;;;;;;-144.99;84.61;52321.72;5058357;28;20599;-68
2021/05/26 08:57:14;;;;;;;19.37;8.07;;;;;;;-144.99;85.33;52370.63;5060412;28;20222;-67
2021/05/26 08:59:41;;;;;;;8.07;6.33;;;;;;;-144.99;84.87;52376.75;5060617;28;20828;-65
2021/05/26 09:02:13;;;;;;;10.60;7.50;;;;;;;-144.99;87.16;52350.25;5058676;28;20197;-66
2021/05/26 09:04:41;;;;;;;10.40;6.47;;;;;;;-144.99;88.07;52366.56;5061375;28;20300;-69
2021/05/26 09:07:10;;;;;;;9.70;6.30;;;;;;;-144.99;88.42;52325.81;5058047;28;20757;-68
2021/05/26 09:10:05;;;;;;;9.07;8.17;;;;;;;-144.99;89.18;52370.63;5057637;28;20762;-68
2021/05/26 09:12:33;;;;;;;6.73;6.03;;;;;;;-144.99;89.51;52346.19;5062464;28;20256;-70
2021/05/26 09:15:05;;;;;;;11.30;7.93;;;;;;;-144.99;88.65;52333.94;5060870;28;20377;-68
2021/05/26 09:17:33;;;;;;;11.63;9.03;;;;;;;-144.99;89.41;52342.09;5059387;28;20291;-68
2021/05/26 09:20:27;;;;;;;9.63;7.13;;;;;;;-144.99;88.32;52342.09;5057314;28;20296;-68
2021/05/26 09:23:08;;;;;;;9.80;7.43;;;;;;;-144.99;86.89;52309.50;5061632;28;20236;-67
2021/05/26 09:25:36;;;;;;;10.63;7.40;;;;;;;-144.99;86.56;52342.09;5057510;28;20248;-67
2021/05/26 09:28:19;;;;;;;7.60;6.67;;;;;;;-144.99;85.78;52325.81;5057401;28;20225;-69
2021/05/26 09:30:51;;;;;;;9.10;6.63;;;;;;;-144.99;84.00;52305.41;5064809;28;20204;-69
2021/05/26 09:33:28;;;;;;;10.30;6.27;;;;;;;-144.99;83.93;52370.63;5056442;28;20205;-66
2021/05/26 09:36:26;;;;;;;10.70;6.77;;;;;;;-144.99;82.63;52327.84;5060947;28;20212;-68
2021/05/26 09:38:54;;;;;;;6.77;5.53;;;;;;;-144.99;81.51;52338.03;5057039;28;20229;-69
2021/05/26 09:41:25;;;;;;;13.30;5.70;;;;;;;-144.99;82.50;52354.34;5063457;28;20205;-67
2021/05/26 09:43:53;;;;;;;8.83;5.47;;;;;;;-144.99;81.71;52331.91;5067799;28;20774;-68
2021/05/26 09:46:32;;;;;;;12.03;6.27;;;;;;;-144.99;80.58;52342.09;5069188;28;20631;-67
2021/05/26 09:49:03;;;;;;;8.77;5.13;;;;;;;-144.99;80.50;52354.34;5070042;28;20601;-67
2021/05/26 09:51:35;;;;;;;9.77;4.37;;;;;;;-144.99;79.90;52311.53;5072534;28;20236;-68
2021/05/26 09:54:23;;;;;;;8.60;5.27;;;;;;;-144.99;80.28;52344.16;5066714;28;20209;-67
2021/05/26 09:56:54;;;;;;;9.20;4.03;;;;;;;-144.99;77.66;52352.28;5055501;28;20220;-69
2021/05/26 09:59:22;;;;;;;6.33;3.27;;;;;;;-144.99;78.44;52364.53;5062432;28;20299;-67
2021/05/26 10:01:52;;;;;;;9.83;3.57;;;;;;;-144.99;79.81;52342.09;5068634;28;20547;-68
2021/05/26 10:04:21;;;;;;;5.23;3.80;;;;;;;-144.99;81.61;52350.25;5063834;28;20209;-68
2021/05/26 10:06:50;;;;;;;8.63;5.60;;;;;;;-144.99;84.89;52391.03;5059398;28;20224;-68
2021/05/26 10:09:23;;;;;;;11.23;6.13;;;;;;;-144.99;86.63;52395.09;5066101;28;20232;-68
2021/05/26 10:11:51;;;;;;;11.17;5.30;;;;;;;-144.99;87.30;52329.88;5068433;28;20287;-68
2021/05/26 10:14:18;;;;;;;9.23;5.27;;;;;;;-144.99;87.48;52362.50;5063728;28;20201;-69
2021/05/26 10:16:50;;;;;;;10.37;6.17;;;;;;;-144.99;87.35;52358.41;5068486;28;20282;-68
2021/05/26 10:19:19;;;;;;;7.53;5.83;;;;;;;-144.99;86.21;52321.72;5067243;28;20237;-67
2021/05/26 10:21:48;;;;;;;7.33;4.50;;;;;;;-144.99;86.39;52350.25;5070156;28;20203;-67
2021/05/26 10:24:18;;;;;;;10.57;4.27;;;;;;;-144.99;83.08;52317.66;5070056;28;20209;-67
2021/05/26 10:26:54;;;;;;;7.70;4.27;;;;;;;-144.99;83.05;52289.13;5069898;28;20323;-66
2021/05/26 10:29:37;;;;;;;5.17;3.53;;;;;;;-144.99;82.27;52317.66;5070459;28;20243;-68
2021/05/26 10:32:06;;;;;;;8.50;3.63;;;;;;;-144.99;80.98;52297.25;5059603;28;20241;-68
2021/05/26 10:35:08;;;;;;;6.70;2.93;;;;;;;-144.99;80.86;52291.16;5069919;28;20702;-67
2021/05/26 10:37:38;;;;;;;6.47;2.73;;;;;;;-144.99;78.98;52350.25;5059137;28;20377;-68
2021/05/26 10:40:37;;;;;;;7.10;2.77;;;;;;;-144.99;76.48;52309.50;5070650;28;20372;-68
2021/05/26 10:43:43;;;;;;;4.03;1.97;;;;;;;-144.99;77.02;52319.69;5063010;28;20255;-68
2021/05/26 10:46:39;;;;;;;4.37;2.30;;;;;;;-144.99;77.03;52309.50;5066543;28;20673;-69
2021/05/26 10:49:14;;;;;;;7.33;2.47;;;;;;;-144.99;77.31;52307.47;5068555;28;20250;-68
2021/05/26 10:51:56;;;;;;;4.73;2.53;;;;;;;-144.99;77.01;52319.69;5060347;28;20204;-67
2021/05/26 10:54:59;;;;;;;3.07;2.27;;;;;;;-144.99;78.00;52297.25;5055798;28;20213;-69
2021/05/26 10:57:28;;;;;;;5.67;2.60;;;;;;;-144.99;77.30;52321.72;5056734;28;20666;-68
2021/05/26 11:00:40;;;;;;;6.47;2.87;;;;;;;-144.99;76.60;52248.34;5062401;28;20562;-68
2021/05/26 11:03:39;;;;;;;5.23;2.83;;;;;;;-144.99;75.25;52325.81;5055341;28;20655;-67
2021/05/26 11:06:38;;;;;;;4.70;2.23;;;;;;;-144.99;76.36;52321.72;5054234;28;20724;-68
2021/05/26 11:09:09;;;;;;;3.53;1.50;;;;;;;-144.99;79.44;52297.25;5055819;28;20724;-66
2021/05/26 11:11:52;;;;;;;7.00;3.23;;;;;;;-144.99;78.99;52329.88;5061330;28;20208;-68
2021/05/26 11:14:35;;;;;;;2.57;1.70;;;;;;;-144.99;78.04;52321.72;5060528;28;20208;-67
2021/05/26 11:17:35;;;;;;;7.17;1.67;;;;;;;-144.99;77.88;52262.63;5056996;28;20255;-67
2021/05/26 11:20:22;;;;;;;3.13;2.13;;;;;;;-144.99;75.12;52248.34;5052913;28;20201;-68
2021/05/26 11:22:52;;;;;;;9.10;2.33;;;;;;;-144.99;75.43;52221.84;5056977;28;20209;-68
2021/05/26 11:25:21;;;;;;;3.63;1.80;;;;;;;-144.99;71.81;52238.16;5066213;28;20718;-68
2021/05/26 11:27:52;;;;;;;2.50;1.57;;;;;;;-144.99;70.68;52207.59;5069633;28;20694;-67
2021/05/26 11:30:24;;;;;;;7.23;2.03;;;;;;;-144.99;69.36;52252.44;5070455;28;20245;-67